sensor_id;sensor_type;location;lat;lon;timestamp;temperature;humidity
10296;DHT22;5193;51.032;6.356;2023-06-04T00:02:23;13.00;99.90
10296;DHT22;5193;51.032;6.356;2023-06-04T00:04:48;13.00;99.90
10296;DHT22;5193;51.032;6.356;2023-06-04T00:07:14;12.90;99.90
10296;DHT22;5193;51.032;6.356;2023-06-04T00:09:39;12.90;99.90
10296;DHT22;5193;51.032;6.356;2023-06-04T00:12:05;12.90;99.90
10296;DHT22;5193;51.032;6.356;2023-06-04T00:14:31;12.90;99.90
10296;DHT22;5193;51.032;6.356;2023-06-04T00:16:57;12.80;99.90
10296;DHT22;5193;51.032;6.356;2023-06-04T00:19:22;12.80;99.90
10296;DHT22;5193;51.032;6.356;2023-06-04T00:21:48;12.80;99.90
10296;DHT22;5193;51.032;6.356;2023-06-04T00:24:13;12.70;99.90
10296;DHT22;5193;51.032;6.356;2023-06-04T00:26:39;12.70;99.90
10296;DHT22;5193;51.032;6.356;2023-06-04T00:29:05;12.60;99.90
10296;DHT22;5193;51.032;6.356;2023-06-04T00:31:30;12.60;99.90
10296;DHT22;5193;51.032;6.356;2023-06-04T00:33:56;12.50;99.90
10296;DHT22;5193;51.032;6.356;2023-06-04T00:36:22;12.50;99.90
10296;DHT22;5193;51.032;6.356;2023-06-04T00:38:48;12.40;99.90
10296;DHT22;5193;51.032;6.356;2023-06-04T00:41:13;12.40;99.90
10296;DHT22;5193;51.032;6.356;2023-06-04T00:43:39;12.30;99.90
10296;DHT22;5193;51.032;6.356;2023-06-04T00:46:06;12.20;99.90
10296;DHT22;5193;51.032;6.356;2023-06-04T00:48:31;12.20;99.90
10296;DHT22;5193;51.032;6.356;2023-06-04T00:50:58;12.10;99.90
10296;DHT22;5193;51.032;6.356;2023-06-04T00:53:24;12.00;99.90
10296;DHT22;5193;51.032;6.356;2023-06-04T00:55:50;12.00;99.90
10296;DHT22;5193;51.032;6.356;2023-06-04T00:58:17;11.90;99.90
10296;DHT22;5193;51.032;6.356;2023-06-04T01:00:43;11.80;99.90
10296;DHT22;5193;51.032;6.356;2023-06-04T01:03:17;11.80;99.90
10296;DHT22;5193;51.032;6.356;2023-06-04T01:08:13;11.60;99.90
10296;DHT22;5193;51.032;6.356;2023-06-04T01:10:53;11.60;99.90
10296;DHT22;5193;51.032;6.356;2023-06-04T01:13:19;11.50;99.90
10296;DHT22;5193;51.032;6.356;2023-06-04T01:15:45;11.40;99.90
10296;DHT22;5193;51.032;6.356;2023-06-04T01:18:12;11.30;99.90
10296;DHT22;5193;51.032;6.356;2023-06-04T01:20:43;11.30;99.90
10296;DHT22;5193;51.032;6.356;2023-06-04T01:23:36;11.20;99.90
10296;DHT22;5193;51.032;6.356;2023-06-04T01:26:04;11.20;99.90
10296;DHT22;5193;51.032;6.356;2023-06-04T01:28:32;11.20;99.90
10296;DHT22;5193;51.032;6.356;2023-06-04T01:30:59;11.20;99.90
10296;DHT22;5193;51.032;6.356;2023-06-04T01:33:27;11.10;99.90
10296;DHT22;5193;51.032;6.356;2023-06-04T01:35:52;11.10;99.90
10296;DHT22;5193;51.032;6.356;2023-06-04T01:38:18;11.10;99.90
10296;DHT22;5193;51.032;6.356;2023-06-04T01:40:43;11.10;99.90
10296;DHT22;5193;51.032;6.356;2023-06-04T01:43:09;11.10;99.90
10296;DHT22;5193;51.032;6.356;2023-06-04T01:45:35;11.00;99.90
10296;DHT22;5193;51.032;6.356;2023-06-04T01:48:02;11.00;99.90
10296;DHT22;5193;51.032;6.356;2023-06-04T01:50:28;11.00;99.90
10296;DHT22;5193;51.032;6.356;2023-06-04T01:52:54;11.00;99.90
10296;DHT22;5193;51.032;6.356;2023-06-04T01:55:20;11.00;99.90
10296;DHT22;5193;51.032;6.356;2023-06-04T01:57:46;11.00;99.90
10296;DHT22;5193;51.032;6.356;2023-06-04T02:00:16;11.00;99.90
10296;DHT22;5193;51.032;6.356;2023-06-04T02:02:43;11.00;99.90
10296;DHT22;5193;51.032;6.356;2023-06-04T02:05:10;11.00;99.90
10296;DHT22;5193;51.032;6.356;2023-06-04T02:07:40;11.10;99.90
10296;DHT22;5193;51.032;6.356;2023-06-04T02:10:08;11.00;99.90
10296;DHT22;5193;51.032;6.356;2023-06-04T02:12:37;11.10;99.90
10296;DHT22;5193;51.032;6.356;2023-06-04T02:15:03;11.10;99.90
10296;DHT22;5193;51.032;6.356;2023-06-04T02:17:29;11.00;99.90
10296;DHT22;5193;51.032;6.356;2023-06-04T02:19:58;11.00;99.90
10296;DHT22;5193;51.032;6.356;2023-06-04T02:22:24;11.10;99.90
10296;DHT22;5193;51.032;6.356;2023-06-04T02:24:51;11.10;99.90
10296;DHT22;5193;51.032;6.356;2023-06-04T02:27:16;11.10;99.90
10296;DHT22;5193;51.032;6.356;2023-06-04T02:29:42;11.10;99.90
10296;DHT22;5193;51.032;6.356;2023-06-04T02:32:09;11.10;99.90
10296;DHT22;5193;51.032;6.356;2023-06-04T02:34:35;11.10;99.90
10296;DHT22;5193;51.032;6.356;2023-06-04T02:37:01;11.10;99.90
10296;DHT22;5193;51.032;6.356;2023-06-04T02:39:27;11.10;99.90
10296;DHT22;5193;51.032;6.356;2023-06-04T02:41:53;11.10;99.90
10296;DHT22;5193;51.032;6.356;2023-06-04T02:44:19;11.00;99.90
10296;DHT22;5193;51.032;6.356;2023-06-04T02:46:44;11.00;99.90
10296;DHT22;5193;51.032;6.356;2023-06-04T02:49:11;11.00;99.90
10296;DHT22;5193;51.032;6.356;2023-06-04T02:51:44;11.00;99.90
10296;DHT22;5193;51.032;6.356;2023-06-04T02:54:10;11.00;99.90
10296;DHT22;5193;51.032;6.356;2023-06-04T02:56:36;11.00;99.90
10296;DHT22;5193;51.032;6.356;2023-06-04T02:59:02;10.90;99.90
10296;DHT22;5193;51.032;6.356;2023-06-04T03:01:28;11.00;99.90
10296;DHT22;5193;51.032;6.356;2023-06-04T03:03:55;10.90;99.90
10296;DHT22;5193;51.032;6.356;2023-06-04T03:06:23;10.90;99.90
10296;DHT22;5193;51.032;6.356;2023-06-04T03:08:49;10.80;99.90
10296;DHT22;5193;51.032;6.356;2023-06-04T03:11:16;10.80;99.90
10296;DHT22;5193;51.032;6.356;2023-06-04T03:13:42;10.70;99.90
10296;DHT22;5193;51.032;6.356;2023-06-04T03:16:08;10.70;99.90
10296;DHT22;5193;51.032;6.356;2023-06-04T03:18:44;10.70;99.90
10296;DHT22;5193;51.032;6.356;2023-06-04T03:21:10;10.70;99.90
10296;DHT22;5193;51.032;6.356;2023-06-04T03:23:39;10.60;99.90
10296;DHT22;5193;51.032;6.356;2023-06-04T03:26:06;10.60;99.90
10296;DHT22;5193;51.032;6.356;2023-06-04T03:28:33;10.50;99.90
10296;DHT22;5193;51.032;6.356;2023-06-04T03:30:59;10.50;99.90
10296;DHT22;5193;51.032;6.356;2023-06-04T03:33:25;10.50;99.90
10296;DHT22;5193;51.032;6.356;2023-06-04T03:35:51;10.50;99.90
10296;DHT22;5193;51.032;6.356;2023-06-04T03:38:18;10.50;99.90
10296;DHT22;5193;51.032;6.356;2023-06-04T03:40:44;10.40;99.90
10296;DHT22;5193;51.032;6.356;2023-06-04T03:43:10;10.40;99.90
10296;DHT22;5193;51.032;6.356;2023-06-04T03:45:36;10.40;99.90
10296;DHT22;5193;51.032;6.356;2023-06-04T03:48:01;10.40;99.90
10296;DHT22;5193;51.032;6.356;2023-06-04T03:50:27;10.30;99.90
10296;DHT22;5193;51.032;6.356;2023-06-04T03:52:53;10.30;99.90
10296;DHT22;5193;51.032;6.356;2023-06-04T03:55:18;10.30;99.90
10296;DHT22;5193;51.032;6.356;2023-06-04T03:57:44;10.40;99.90
10296;DHT22;5193;51.032;6.356;2023-06-04T04:00:11;10.30;99.90
10296;DHT22;5193;51.032;6.356;2023-06-04T04:02:41;10.30;99.90
10296;DHT22;5193;51.032;6.356;2023-06-04T04:05:07;10.30;99.90
10296;DHT22;5193;51.032;6.356;2023-06-04T04:07:33;10.40;99.90
10296;DHT22;5193;51.032;6.356;2023-06-04T04:09:58;10.30;99.90
10296;DHT22;5193;51.032;6.356;2023-06-04T04:12:24;10.40;99.90
10296;DHT22;5193;51.032;6.356;2023-06-04T04:14:49;10.30;99.90
10296;DHT22;5193;51.032;6.356;2023-06-04T04:17:15;10.30;99.90
10296;DHT22;5193;51.032;6.356;2023-06-04T04:19:41;10.40;99.90
10296;DHT22;5193;51.032;6.356;2023-06-04T04:22:06;10.40;99.90
10296;DHT22;5193;51.032;6.356;2023-06-04T04:24:34;10.40;99.90
10296;DHT22;5193;51.032;6.356;2023-06-04T04:27:02;10.40;99.90
10296;DHT22;5193;51.032;6.356;2023-06-04T04:29:29;10.40;99.90
10296;DHT22;5193;51.032;6.356;2023-06-04T04:31:58;10.40;99.90
10296;DHT22;5193;51.032;6.356;2023-06-04T04:34:27;10.50;99.90
10296;DHT22;5193;51.032;6.356;2023-06-04T04:36:53;10.50;99.90
10296;DHT22;5193;51.032;6.356;2023-06-04T04:39:23;10.50;99.90
10296;DHT22;5193;51.032;6.356;2023-06-04T04:41:49;10.60;99.90
10296;DHT22;5193;51.032;6.356;2023-06-04T04:44:15;10.60;99.90
10296;DHT22;5193;51.032;6.356;2023-06-04T04:46:40;10.60;99.90
10296;DHT22;5193;51.032;6.356;2023-06-04T04:49:06;10.70;99.90
10296;DHT22;5193;51.032;6.356;2023-06-04T04:51:32;10.70;99.90
10296;DHT22;5193;51.032;6.356;2023-06-04T04:53:58;10.80;99.90
10296;DHT22;5193;51.032;6.356;2023-06-04T04:56:26;10.80;99.90
10296;DHT22;5193;51.032;6.356;2023-06-04T04:58:52;10.90;99.90
10296;DHT22;5193;51.032;6.356;2023-06-04T05:01:18;10.90;99.90
10296;DHT22;5193;51.032;6.356;2023-06-04T05:03:43;11.00;99.90
10296;DHT22;5193;51.032;6.356;2023-06-04T05:06:09;11.00;99.90
10296;DHT22;5193;51.032;6.356;2023-06-04T05:08:35;11.10;99.90
10296;DHT22;5193;51.032;6.356;2023-06-04T05:11:00;11.20;99.90
10296;DHT22;5193;51.032;6.356;2023-06-04T05:13:26;11.30;99.90
10296;DHT22;5193;51.032;6.356;2023-06-04T05:15:51;11.30;99.90
10296;DHT22;5193;51.032;6.356;2023-06-04T05:18:20;11.40;99.90
10296;DHT22;5193;51.032;6.356;2023-06-04T05:20:46;11.50;99.90
10296;DHT22;5193;51.032;6.356;2023-06-04T05:23:12;11.50;99.90
10296;DHT22;5193;51.032;6.356;2023-06-04T05:25:38;11.60;99.90
10296;DHT22;5193;51.032;6.356;2023-06-04T05:28:04;11.70;99.90
10296;DHT22;5193;51.032;6.356;2023-06-04T05:30:32;11.80;99.90
10296;DHT22;5193;51.032;6.356;2023-06-04T05:32:59;11.80;99.90
10296;DHT22;5193;51.032;6.356;2023-06-04T05:35:24;11.90;99.90
10296;DHT22;5193;51.032;6.356;2023-06-04T05:37:50;12.00;99.90
10296;DHT22;5193;51.032;6.356;2023-06-04T05:40:20;12.10;99.90
10296;DHT22;5193;51.032;6.356;2023-06-04T05:42:47;12.10;99.90
10296;DHT22;5193;51.032;6.356;2023-06-04T05:45:12;12.20;99.90
10296;DHT22;5193;51.032;6.356;2023-06-04T05:47:38;12.30;99.90
10296;DHT22;5193;51.032;6.356;2023-06-04T05:50:04;12.40;99.90
10296;DHT22;5193;51.032;6.356;2023-06-04T05:52:32;12.40;99.90
10296;DHT22;5193;51.032;6.356;2023-06-04T05:54:57;12.50;99.90
10296;DHT22;5193;51.032;6.356;2023-06-04T05:57:23;12.60;99.90
10296;DHT22;5193;51.032;6.356;2023-06-04T05:59:48;12.70;99.90
10296;DHT22;5193;51.032;6.356;2023-06-04T06:02:14;12.80;99.90
10296;DHT22;5193;51.032;6.356;2023-06-04T06:04:40;12.90;99.90
10296;DHT22;5193;51.032;6.356;2023-06-04T06:07:05;13.10;99.90
10296;DHT22;5193;51.032;6.356;2023-06-04T06:09:31;13.20;99.90
10296;DHT22;5193;51.032;6.356;2023-06-04T06:11:57;13.40;99.90
10296;DHT22;5193;51.032;6.356;2023-06-04T06:14:23;13.50;99.90
10296;DHT22;5193;51.032;6.356;2023-06-04T06:16:49;13.70;99.90
10296;DHT22;5193;51.032;6.356;2023-06-04T06:19:15;13.80;99.90
10296;DHT22;5193;51.032;6.356;2023-06-04T06:21:40;13.90;99.90
10296;DHT22;5193;51.032;6.356;2023-06-04T06:24:06;14.10;99.90
10296;DHT22;5193;51.032;6.356;2023-06-04T06:26:31;14.10;99.90
10296;DHT22;5193;51.032;6.356;2023-06-04T06:28:57;14.30;99.90
10296;DHT22;5193;51.032;6.356;2023-06-04T06:31:23;14.40;99.90
10296;DHT22;5193;51.032;6.356;2023-06-04T06:33:48;14.70;99.90
10296;DHT22;5193;51.032;6.356;2023-06-04T06:36:14;14.80;99.90
10296;DHT22;5193;51.032;6.356;2023-06-04T06:38:44;14.90;99.90
10296;DHT22;5193;51.032;6.356;2023-06-04T06:41:10;15.20;99.90
10296;DHT22;5193;51.032;6.356;2023-06-04T06:43:36;15.20;99.90
10296;DHT22;5193;51.032;6.356;2023-06-04T06:46:01;15.30;99.90
10296;DHT22;5193;51.032;6.356;2023-06-04T06:48:27;15.30;99.90
10296;DHT22;5193;51.032;6.356;2023-06-04T06:50:54;15.40;99.90
10296;DHT22;5193;51.032;6.356;2023-06-04T06:53:20;15.40;99.90
10296;DHT22;5193;51.032;6.356;2023-06-04T06:55:45;15.50;99.90
10296;DHT22;5193;51.032;6.356;2023-06-04T06:58:11;15.70;99.90
10296;DHT22;5193;51.032;6.356;2023-06-04T07:00:37;15.80;99.90
10296;DHT22;5193;51.032;6.356;2023-06-04T07:03:02;15.90;99.90
10296;DHT22;5193;51.032;6.356;2023-06-04T07:05:29;15.90;99.90
10296;DHT22;5193;51.032;6.356;2023-06-04T07:07:55;16.00;99.90
10296;DHT22;5193;51.032;6.356;2023-06-04T07:10:22;16.00;99.90
10296;DHT22;5193;51.032;6.356;2023-06-04T07:12:48;16.20;99.90
10296;DHT22;5193;51.032;6.356;2023-06-04T07:15:14;16.50;99.90
10296;DHT22;5193;51.032;6.356;2023-06-04T07:17:39;16.60;99.90
10296;DHT22;5193;51.032;6.356;2023-06-04T07:20:06;16.70;99.90
10296;DHT22;5193;51.032;6.356;2023-06-04T07:22:33;16.80;99.90
10296;DHT22;5193;51.032;6.356;2023-06-04T07:24:58;17.10;99.90
10296;DHT22;5193;51.032;6.356;2023-06-04T07:27:24;17.20;99.90
10296;DHT22;5193;51.032;6.356;2023-06-04T07:29:50;17.30;99.90
10296;DHT22;5193;51.032;6.356;2023-06-04T07:32:16;17.40;99.90
10296;DHT22;5193;51.032;6.356;2023-06-04T07:34:41;17.50;99.90
10296;DHT22;5193;51.032;6.356;2023-06-04T07:37:07;17.70;99.90
10296;DHT22;5193;51.032;6.356;2023-06-04T07:39:35;17.90;99.90
10296;DHT22;5193;51.032;6.356;2023-06-04T07:42:00;17.80;99.90
10296;DHT22;5193;51.032;6.356;2023-06-04T07:44:26;17.80;99.90
10296;DHT22;5193;51.032;6.356;2023-06-04T07:46:52;17.90;99.90
10296;DHT22;5193;51.032;6.356;2023-06-04T07:49:17;18.10;99.90
10296;DHT22;5193;51.032;6.356;2023-06-04T07:51:43;18.20;99.90
10296;DHT22;5193;51.032;6.356;2023-06-04T07:54:09;18.20;99.90
10296;DHT22;5193;51.032;6.356;2023-06-04T07:56:34;18.30;99.90
10296;DHT22;5193;51.032;6.356;2023-06-04T07:59:00;18.60;99.90
10296;DHT22;5193;51.032;6.356;2023-06-04T08:01:26;18.70;99.90
10296;DHT22;5193;51.032;6.356;2023-06-04T08:03:51;19.00;99.90
10296;DHT22;5193;51.032;6.356;2023-06-04T08:06:17;19.00;99.90
10296;DHT22;5193;51.032;6.356;2023-06-04T08:08:43;19.20;99.90
10296;DHT22;5193;51.032;6.356;2023-06-04T08:11:14;19.30;99.90
10296;DHT22;5193;51.032;6.356;2023-06-04T08:13:40;19.40;99.90
10296;DHT22;5193;51.032;6.356;2023-06-04T08:16:06;19.40;99.90
10296;DHT22;5193;51.032;6.356;2023-06-04T08:18:32;19.40;99.90
10296;DHT22;5193;51.032;6.356;2023-06-04T08:20:58;19.50;99.90
10296;DHT22;5193;51.032;6.356;2023-06-04T08:23:23;19.60;99.90
10296;DHT22;5193;51.032;6.356;2023-06-04T08:25:49;19.80;99.90
10296;DHT22;5193;51.032;6.356;2023-06-04T08:28:15;19.80;99.90
10296;DHT22;5193;51.032;6.356;2023-06-04T08:30:42;19.90;99.90
10296;DHT22;5193;51.032;6.356;2023-06-04T08:33:07;20.30;99.90
10296;DHT22;5193;51.032;6.356;2023-06-04T08:35:33;20.60;99.90
10296;DHT22;5193;51.032;6.356;2023-06-04T08:37:58;20.80;99.90
10296;DHT22;5193;51.032;6.356;2023-06-04T08:40:24;21.10;99.90
10296;DHT22;5193;51.032;6.356;2023-06-04T08:42:50;21.40;99.90
10296;DHT22;5193;51.032;6.356;2023-06-04T08:45:20;21.50;99.90
10296;DHT22;5193;51.032;6.356;2023-06-04T08:47:49;21.40;99.90
10296;DHT22;5193;51.032;6.356;2023-06-04T08:50:25;21.30;99.90
10296;DHT22;5193;51.032;6.356;2023-06-04T08:52:54;21.30;99.90
10296;DHT22;5193;51.032;6.356;2023-06-04T08:55:20;21.40;99.90
10296;DHT22;5193;51.032;6.356;2023-06-04T08:57:49;21.60;99.90
10296;DHT22;5193;51.032;6.356;2023-06-04T09:00:16;21.60;99.90
10296;DHT22;5193;51.032;6.356;2023-06-04T09:02:42;21.80;99.90
10296;DHT22;5193;51.032;6.356;2023-06-04T09:05:08;22.00;99.90
10296;DHT22;5193;51.032;6.356;2023-06-04T09:07:36;22.10;99.90
10296;DHT22;5193;51.032;6.356;2023-06-04T09:10:04;22.10;99.90
10296;DHT22;5193;51.032;6.356;2023-06-04T09:12:33;22.20;99.90
10296;DHT22;5193;51.032;6.356;2023-06-04T09:15:01;22.20;99.70
10296;DHT22;5193;51.032;6.356;2023-06-04T09:17:27;22.20;99.50
10296;DHT22;5193;51.032;6.356;2023-06-04T09:19:53;22.20;98.10
10296;DHT22;5193;51.032;6.356;2023-06-04T09:22:19;22.10;98.30
10296;DHT22;5193;51.032;6.356;2023-06-04T09:24:46;22.20;99.30
10296;DHT22;5193;51.032;6.356;2023-06-04T09:27:17;22.20;98.40
10296;DHT22;5193;51.032;6.356;2023-06-04T09:29:50;22.30;99.00
10296;DHT22;5193;51.032;6.356;2023-06-04T09:34:48;22.40;97.60
10296;DHT22;5193;51.032;6.356;2023-06-04T09:37:14;22.50;97.70
10296;DHT22;5193;51.032;6.356;2023-06-04T09:39:43;22.50;97.60
10296;DHT22;5193;51.032;6.356;2023-06-04T09:42:09;22.50;97.30
10296;DHT22;5193;51.032;6.356;2023-06-04T09:44:43;22.60;97.50
10296;DHT22;5193;51.032;6.356;2023-06-04T09:47:11;22.70;96.50
10296;DHT22;5193;51.032;6.356;2023-06-04T09:49:41;22.70;96.20
10296;DHT22;5193;51.032;6.356;2023-06-04T09:52:07;22.60;95.10
10296;DHT22;5193;51.032;6.356;2023-06-04T09:54:40;22.40;95.50
10296;DHT22;5193;51.032;6.356;2023-06-04T09:57:17;22.40;95.50
10296;DHT22;5193;51.032;6.356;2023-06-04T09:59:49;22.50;96.00
10296;DHT22;5193;51.032;6.356;2023-06-04T10:02:19;22.70;94.90
10296;DHT22;5193;51.032;6.356;2023-06-04T10:04:49;22.80;97.40
10296;DHT22;5193;51.032;6.356;2023-06-04T10:07:15;22.90;95.90
10296;DHT22;5193;51.032;6.356;2023-06-04T10:09:43;23.10;97.00
10296;DHT22;5193;51.032;6.356;2023-06-04T10:12:13;23.30;96.40
10296;DHT22;5193;51.032;6.356;2023-06-04T10:14:52;23.30;94.10
10296;DHT22;5193;51.032;6.356;2023-06-04T10:17:22;23.40;95.00
10296;DHT22;5193;51.032;6.356;2023-06-04T10:19:49;23.30;93.90
10296;DHT22;5193;51.032;6.356;2023-06-04T10:22:17;23.40;94.30
10296;DHT22;5193;51.032;6.356;2023-06-04T10:24:43;23.50;95.50
10296;DHT22;5193;51.032;6.356;2023-06-04T10:27:11;23.50;93.00
10296;DHT22;5193;51.032;6.356;2023-06-04T10:29:38;23.40;92.10
10296;DHT22;5193;51.032;6.356;2023-06-04T10:32:04;23.30;92.40
10296;DHT22;5193;51.032;6.356;2023-06-04T10:34:30;23.30;94.20
10296;DHT22;5193;51.032;6.356;2023-06-04T10:36:56;23.40;91.70
10296;DHT22;5193;51.032;6.356;2023-06-04T10:39:26;23.40;90.80
10296;DHT22;5193;51.032;6.356;2023-06-04T10:42:04;23.50;92.70
10296;DHT22;5193;51.032;6.356;2023-06-04T10:44:43;23.60;91.80
10296;DHT22;5193;51.032;6.356;2023-06-04T10:47:24;23.70;93.30
10296;DHT22;5193;51.032;6.356;2023-06-04T10:49:54;23.80;91.60
10296;DHT22;5193;51.032;6.356;2023-06-04T10:52:21;23.70;91.00
10296;DHT22;5193;51.032;6.356;2023-06-04T10:54:47;23.80;91.60
10296;DHT22;5193;51.032;6.356;2023-06-04T10:57:19;23.80;91.80
10296;DHT22;5193;51.032;6.356;2023-06-04T10:59:54;23.80;91.90
10296;DHT22;5193;51.032;6.356;2023-06-04T11:02:20;24.00;92.10
10296;DHT22;5193;51.032;6.356;2023-06-04T11:04:46;24.00;91.30
10296;DHT22;5193;51.032;6.356;2023-06-04T11:07:12;24.00;91.70
10296;DHT22;5193;51.032;6.356;2023-06-04T11:09:47;24.10;91.50
10296;DHT22;5193;51.032;6.356;2023-06-04T11:12:13;24.20;92.40
10296;DHT22;5193;51.032;6.356;2023-06-04T11:14:39;24.10;88.60
10296;DHT22;5193;51.032;6.356;2023-06-04T11:17:14;24.10;91.00
10296;DHT22;5193;51.032;6.356;2023-06-04T11:19:40;24.20;90.00
10296;DHT22;5193;51.032;6.356;2023-06-04T11:22:06;24.10;90.10
10296;DHT22;5193;51.032;6.356;2023-06-04T11:24:35;24.00;86.10
10296;DHT22;5193;51.032;6.356;2023-06-04T11:27:01;23.80;89.00
10296;DHT22;5193;51.032;6.356;2023-06-04T11:29:28;23.70;90.30
10296;DHT22;5193;51.032;6.356;2023-06-04T11:31:53;23.60;90.20
10296;DHT22;5193;51.032;6.356;2023-06-04T11:34:37;23.80;92.20
10296;DHT22;5193;51.032;6.356;2023-06-04T11:37:09;23.90;90.60
10296;DHT22;5193;51.032;6.356;2023-06-04T11:39:36;24.00;91.00
10296;DHT22;5193;51.032;6.356;2023-06-04T11:42:06;24.10;88.30
10296;DHT22;5193;51.032;6.356;2023-06-04T11:44:33;24.10;86.10
10296;DHT22;5193;51.032;6.356;2023-06-04T11:46:59;24.00;89.60
10296;DHT22;5193;51.032;6.356;2023-06-04T11:49:25;24.10;90.40
10296;DHT22;5193;51.032;6.356;2023-06-04T11:51:52;24.20;90.20
10296;DHT22;5193;51.032;6.356;2023-06-04T11:54:20;24.20;89.70
10296;DHT22;5193;51.032;6.356;2023-06-04T11:56:48;24.30;87.80
10296;DHT22;5193;51.032;6.356;2023-06-04T11:59:15;24.30;88.40
10296;DHT22;5193;51.032;6.356;2023-06-04T12:01:45;24.40;91.10
10296;DHT22;5193;51.032;6.356;2023-06-04T12:04:16;24.70;90.30
10296;DHT22;5193;51.032;6.356;2023-06-04T12:09:21;24.70;86.80
10296;DHT22;5193;51.032;6.356;2023-06-04T12:11:47;24.70;86.30
10296;DHT22;5193;51.032;6.356;2023-06-04T12:14:16;24.50;83.90
10296;DHT22;5193;51.032;6.356;2023-06-04T12:16:43;24.50;89.70
10296;DHT22;5193;51.032;6.356;2023-06-04T12:19:11;24.60;84.60
10296;DHT22;5193;51.032;6.356;2023-06-04T12:21:38;24.50;85.90
10296;DHT22;5193;51.032;6.356;2023-06-04T12:26:33;24.40;84.30
10296;DHT22;5193;51.032;6.356;2023-06-04T12:29:08;24.30;89.40
10296;DHT22;5193;51.032;6.356;2023-06-04T12:31:35;24.40;84.40
10296;DHT22;5193;51.032;6.356;2023-06-04T12:34:01;24.40;84.10
10296;DHT22;5193;51.032;6.356;2023-06-04T12:36:27;24.40;84.70
10296;DHT22;5193;51.032;6.356;2023-06-04T12:39:01;24.60;86.90
10296;DHT22;5193;51.032;6.356;2023-06-04T12:41:28;24.60;84.30
10296;DHT22;5193;51.032;6.356;2023-06-04T12:43:54;24.50;84.80
10296;DHT22;5193;51.032;6.356;2023-06-04T12:46:21;24.50;83.80
10296;DHT22;5193;51.032;6.356;2023-06-04T12:48:47;24.50;85.90
10296;DHT22;5193;51.032;6.356;2023-06-04T12:51:13;24.50;85.50
10296;DHT22;5193;51.032;6.356;2023-06-04T12:53:40;24.50;83.00
10296;DHT22;5193;51.032;6.356;2023-06-04T12:56:06;24.50;81.40
10296;DHT22;5193;51.032;6.356;2023-06-04T12:58:31;24.40;80.70
10296;DHT22;5193;51.032;6.356;2023-06-04T13:00:57;24.40;81.80
10296;DHT22;5193;51.032;6.356;2023-06-04T13:03:23;24.50;83.10
10296;DHT22;5193;51.032;6.356;2023-06-04T13:05:48;24.50;81.60
10296;DHT22;5193;51.032;6.356;2023-06-04T13:08:15;24.50;80.20
10296;DHT22;5193;51.032;6.356;2023-06-04T13:10:41;24.50;80.80
10296;DHT22;5193;51.032;6.356;2023-06-04T13:13:07;24.40;78.20
10296;DHT22;5193;51.032;6.356;2023-06-04T13:15:32;24.50;82.60
10296;DHT22;5193;51.032;6.356;2023-06-04T13:17:58;24.70;82.30
10296;DHT22;5193;51.032;6.356;2023-06-04T13:20:24;24.90;82.50
10296;DHT22;5193;51.032;6.356;2023-06-04T13:22:50;25.00;80.00
10296;DHT22;5193;51.032;6.356;2023-06-04T13:25:16;25.10;82.40
10296;DHT22;5193;51.032;6.356;2023-06-04T13:27:41;25.20;79.40
10296;DHT22;5193;51.032;6.356;2023-06-04T13:30:07;25.20;80.10
10296;DHT22;5193;51.032;6.356;2023-06-04T13:32:33;25.30;77.70
10296;DHT22;5193;51.032;6.356;2023-06-04T13:34:58;25.30;77.90
10296;DHT22;5193;51.032;6.356;2023-06-04T13:37:24;25.30;78.70
10296;DHT22;5193;51.032;6.356;2023-06-04T13:39:49;25.20;74.60
10296;DHT22;5193;51.032;6.356;2023-06-04T13:42:15;25.20;78.80
10296;DHT22;5193;51.032;6.356;2023-06-04T13:44:40;25.30;76.10
10296;DHT22;5193;51.032;6.356;2023-06-04T13:47:06;25.30;75.90
10296;DHT22;5193;51.032;6.356;2023-06-04T13:49:34;25.30;77.90
10296;DHT22;5193;51.032;6.356;2023-06-04T13:52:00;25.40;76.00
10296;DHT22;5193;51.032;6.356;2023-06-04T13:54:26;25.40;77.00
10296;DHT22;5193;51.032;6.356;2023-06-04T13:56:52;25.40;76.00
10296;DHT22;5193;51.032;6.356;2023-06-04T13:59:17;25.30;74.10
10296;DHT22;5193;51.032;6.356;2023-06-04T14:01:43;25.40;79.00
10296;DHT22;5193;51.032;6.356;2023-06-04T14:04:09;25.50;78.20
10296;DHT22;5193;51.032;6.356;2023-06-04T14:06:37;25.60;76.00
10296;DHT22;5193;51.032;6.356;2023-06-04T14:09:03;25.80;74.60
10296;DHT22;5193;51.032;6.356;2023-06-04T14:11:29;25.70;72.00
10296;DHT22;5193;51.032;6.356;2023-06-04T14:13:55;25.70;70.80
10296;DHT22;5193;51.032;6.356;2023-06-04T14:16:21;25.80;72.50
10296;DHT22;5193;51.032;6.356;2023-06-04T14:18:46;25.70;70.50
10296;DHT22;5193;51.032;6.356;2023-06-04T14:21:12;25.80;73.70
10296;DHT22;5193;51.032;6.356;2023-06-04T14:23:37;25.80;72.20
10296;DHT22;5193;51.032;6.356;2023-06-04T14:26:03;25.80;71.30
10296;DHT22;5193;51.032;6.356;2023-06-04T14:28:29;25.70;69.70
10296;DHT22;5193;51.032;6.356;2023-06-04T14:30:54;25.50;72.00
10296;DHT22;5193;51.032;6.356;2023-06-04T14:33:20;25.50;70.30
10296;DHT22;5193;51.032;6.356;2023-06-04T14:35:45;25.50;71.00
10296;DHT22;5193;51.032;6.356;2023-06-04T14:38:16;25.60;69.10
10296;DHT22;5193;51.032;6.356;2023-06-04T14:40:41;25.50;71.00
10296;DHT22;5193;51.032;6.356;2023-06-04T14:43:11;25.60;70.70
10296;DHT22;5193;51.032;6.356;2023-06-04T14:45:37;25.70;69.10
10296;DHT22;5193;51.032;6.356;2023-06-04T14:48:06;25.80;69.50
10296;DHT22;5193;51.032;6.356;2023-06-04T14:50:32;26.00;68.50
10296;DHT22;5193;51.032;6.356;2023-06-04T14:52:58;25.90;67.00
10296;DHT22;5193;51.032;6.356;2023-06-04T14:55:24;25.80;66.30
10296;DHT22;5193;51.032;6.356;2023-06-04T14:57:50;25.80;66.80
10296;DHT22;5193;51.032;6.356;2023-06-04T15:00:16;25.90;66.20
10296;DHT22;5193;51.032;6.356;2023-06-04T15:02:42;26.00;69.70
10296;DHT22;5193;51.032;6.356;2023-06-04T15:05:08;26.00;66.50
10296;DHT22;5193;51.032;6.356;2023-06-04T15:07:33;26.00;66.40
10296;DHT22;5193;51.032;6.356;2023-06-04T15:09:59;26.00;66.40
10296;DHT22;5193;51.032;6.356;2023-06-04T15:12:27;26.00;67.30
10296;DHT22;5193;51.032;6.356;2023-06-04T15:14:53;26.00;66.10
10296;DHT22;5193;51.032;6.356;2023-06-04T15:17:18;25.90;68.30
10296;DHT22;5193;51.032;6.356;2023-06-04T15:19:44;26.10;66.40
10296;DHT22;5193;51.032;6.356;2023-06-04T15:22:10;26.10;65.70
10296;DHT22;5193;51.032;6.356;2023-06-04T15:24:35;26.00;66.20
10296;DHT22;5193;51.032;6.356;2023-06-04T15:27:01;26.00;69.70
10296;DHT22;5193;51.032;6.356;2023-06-04T15:29:27;26.00;69.20
10296;DHT22;5193;51.032;6.356;2023-06-04T15:31:53;26.10;68.40
10296;DHT22;5193;51.032;6.356;2023-06-04T15:34:19;26.10;69.40
10296;DHT22;5193;51.032;6.356;2023-06-04T15:36:44;26.30;69.20
10296;DHT22;5193;51.032;6.356;2023-06-04T15:39:12;26.40;66.50
10296;DHT22;5193;51.032;6.356;2023-06-04T15:41:38;26.40;66.70
10296;DHT22;5193;51.032;6.356;2023-06-04T15:44:03;26.30;64.80
10296;DHT22;5193;51.032;6.356;2023-06-04T15:46:29;26.10;64.80
10296;DHT22;5193;51.032;6.356;2023-06-04T15:48:55;25.90;66.20
10296;DHT22;5193;51.032;6.356;2023-06-04T15:51:20;25.90;64.90
10296;DHT22;5193;51.032;6.356;2023-06-04T15:53:46;25.90;66.00